createdAt,value
2019-05-04T14:33:32.526Z,50080
2019-05-04T14:34:42.678Z,46816
2019-05-04T14:35:52.831Z,10940
2019-05-04T14:37:03.035Z,8776
2019-05-04T14:38:15.010Z,7000
2019-05-04T14:39:27.576Z,5624
2019-05-04T14:40:39.090Z,4660
2019-05-04T14:41:51.254Z,4132
2019-05-04T14:43:05.421Z,4124
2019-05-04T14:44:17.441Z,4144
2019-05-04T14:45:28.044Z,3948
2019-05-04T14:46:39.393Z,3508
2019-05-04T14:47:49.562Z,3224
2019-05-04T14:48:59.491Z,2976
2019-05-04T14:50:15.148Z,2840
2019-05-04T14:51:27.803Z,3124
2019-05-04T14:52:39.207Z,3860
2019-05-04T14:53:54.848Z,4264
2019-05-04T14:55:07.919Z,4560
2019-05-04T14:56:21.832Z,4568
2019-05-04T14:57:32.483Z,4444
2019-05-04T14:58:42.662Z,3896
2019-05-04T14:59:52.819Z,3476
2019-05-04T15:01:09.039Z,3228
2019-05-04T15:02:20.692Z,3860
2019-05-04T15:03:34.319Z,4732
2019-05-04T15:04:44.723Z,5520
2019-05-04T15:05:55.416Z,5968
2019-05-04T15:07:07.511Z,6760
2019-05-04T15:08:19.759Z,7256
2019-05-04T15:09:34.237Z,8840
2019-05-04T15:10:44.940Z,9004
2019-05-04T15:11:57.825Z,7180
2019-05-04T15:13:10.312Z,8344
2019-05-04T15:14:24.564Z,8424
2019-05-04T15:15:37.118Z,13696
2019-05-04T15:16:47.330Z,10792
2019-05-04T15:17:59.314Z,8832
2019-05-04T15:19:10.032Z,6328
2019-05-04T15:20:24.557Z,4880
2019-05-04T15:21:34.920Z,4332
2019-05-04T15:22:47.626Z,4308
2019-05-04T15:24:02.465Z,4732
2019-05-04T15:25:15.021Z,4976
2019-05-04T15:26:27.330Z,4928
2019-05-04T15:27:39.788Z,4692
2019-05-04T15:28:52.002Z,4460
2019-05-04T15:30:05.471Z,4200
2019-05-04T15:31:16.736Z,4056
2019-05-04T15:32:30.121Z,4008
2019-05-04T15:33:44.956Z,3984
2019-05-04T15:34:55.522Z,3760
2019-05-04T15:36:07.361Z,3544
2019-05-04T15:37:19.813Z,3296
2019-05-04T15:38:32.155Z,3164
2019-05-04T15:39:44.084Z,3192
2019-05-04T15:40:54.354Z,3352
2019-05-04T15:42:05.653Z,3576
2019-05-04T15:43:17.078Z,3788
2019-05-04T15:44:27.349Z,3820
2019-05-04T15:45:39.893Z,3724
2019-05-04T15:46:51.684Z,3640
2019-05-04T15:48:04.196Z,3636
2019-05-04T15:49:15.109Z,3756
2019-05-04T15:50:27.830Z,4016
2019-05-04T15:51:39.973Z,4424
2019-05-04T15:52:51.865Z,4428
2019-05-04T15:54:02.202Z,4232
2019-05-04T15:55:14.289Z,4072
2019-05-04T15:56:24.757Z,3836
2019-05-04T15:57:34.823Z,3556
2019-05-04T15:58:48.041Z,3328
2019-05-04T15:59:59.087Z,3304
2019-05-04T16:01:09.641Z,3324
2019-05-04T16:02:24.023Z,3000
2019-05-04T16:03:34.786Z,2852
2019-05-04T16:04:44.905Z,3176
2019-05-04T16:05:57.437Z,4052
2019-05-04T16:07:09.856Z,5560
2019-05-04T16:08:22.527Z,6440
2019-05-04T16:09:32.702Z,6228
2019-05-04T16:10:44.549Z,5644
2019-05-04T16:11:57.425Z,4600
2019-05-04T16:13:07.888Z,3324
2019-05-04T16:14:19.556Z,2316
2019-05-04T16:15:45.535Z,1720
2019-05-04T16:16:55.874Z,1448
2019-05-04T16:18:06.720Z,1240
2019-05-04T16:19:17.533Z,1108
2019-05-04T16:20:29.289Z,1016
2019-05-04T16:21:40.166Z,924
2019-05-04T16:22:52.597Z,800
2019-05-04T16:24:02.759Z,648
2019-05-04T16:25:14.914Z,504
2019-05-04T16:26:27.132Z,412
2019-05-04T16:27:39.515Z,368
2019-05-04T16:28:49.784Z,344
2019-05-04T16:30:00.000Z,388
2019-05-04T16:31:11.562Z,488
2019-05-04T16:32:24.563Z,620
2019-05-04T16:33:38.644Z,816
2019-05-04T16:34:51.075Z,1116
2019-05-04T16:36:04.938Z,1572
2019-05-04T16:37:17.367Z,2040
2019-05-04T16:38:29.425Z,2288
2019-05-04T16:39:39.664Z,2300
2019-05-04T16:40:50.205Z,2276
2019-05-04T16:42:03.856Z,2312
2019-05-04T16:43:14.403Z,2432
2019-05-04T16:44:26.239Z,2596
2019-05-04T16:45:37.257Z,2828
2019-05-04T16:47:04.402Z,2740
2019-05-04T16:48:16.870Z,2464
2019-05-04T16:49:27.173Z,2148
2019-05-04T16:50:37.856Z,1872
2019-05-04T16:51:50.098Z,1648
2019-05-04T16:53:02.163Z,1620
2019-05-04T16:54:14.430Z,1564
2019-05-04T16:55:24.800Z,1728
2019-05-04T16:56:35.388Z,2440
2019-05-04T16:57:45.591Z,3940
2019-05-04T16:58:56.562Z,4636
2019-05-04T17:00:09.044Z,4980
2019-05-04T17:01:19.849Z,4736
2019-05-04T17:02:34.563Z,3880
2019-05-04T17:03:45.166Z,3360
2019-05-04T17:04:59.823Z,3436
2019-05-04T17:06:14.103Z,3768
2019-05-04T17:07:24.657Z,3724
2019-05-04T17:08:35.533Z,3464
2019-05-04T17:09:46.238Z,3472
2019-05-04T17:10:57.219Z,3296
2019-05-04T17:12:09.655Z,2920
2019-05-04T17:13:20.148Z,2576
2019-05-04T17:14:32.540Z,2316
2019-05-04T17:15:43.967Z,2144
2019-05-04T17:16:57.341Z,2100
2019-05-04T17:18:10.085Z,2036
2019-05-04T17:19:31.003Z,1924
2019-05-04T17:20:44.156Z,1848
2019-05-04T17:21:55.051Z,1768
2019-05-04T17:23:07.158Z,1788
2019-05-04T17:24:20.024Z,1736
2019-05-04T17:25:34.180Z,1664
2019-05-04T17:26:45.285Z,1640
2019-05-04T17:27:57.750Z,1604
2019-05-04T17:29:14.707Z,1596
2019-05-04T17:30:27.901Z,1552
2019-05-04T17:31:39.653Z,1512
2019-05-04T17:32:52.206Z,1528
2019-05-04T17:34:04.390Z,1536
2019-05-04T17:35:16.766Z,1596
2019-05-04T17:36:27.886Z,1628
2019-05-04T17:37:39.404Z,1596
2019-05-04T17:38:52.235Z,1492
2019-05-04T17:40:04.622Z,1384
2019-05-04T17:41:17.397Z,1300
2019-05-04T17:42:29.953Z,1228
2019-05-04T17:43:42.015Z,1168
2019-05-04T17:44:54.284Z,1108
2019-05-04T17:46:04.950Z,1052
2019-05-04T17:47:15.231Z,1012
2019-05-04T17:48:25.386Z,984
2019-05-04T17:49:36.735Z,960
2019-05-04T17:50:49.848Z,928
2019-05-04T17:52:04.679Z,904
2019-05-04T17:53:17.775Z,888
2019-05-04T17:54:29.175Z,872
2019-05-04T17:55:39.491Z,868
2019-05-04T17:56:51.644Z,860
2019-05-04T17:58:04.676Z,856
2019-05-04T17:59:15.005Z,848
2019-05-04T18:00:25.291Z,844
2019-05-04T18:01:37.322Z,836
2019-05-04T18:02:49.894Z,828
2019-05-04T18:04:01.976Z,804
2019-05-04T18:05:15.024Z,780
2019-05-04T18:06:26.084Z,760
2019-05-04T18:07:36.764Z,736
2019-05-04T18:08:47.290Z,712
2019-05-04T18:09:59.379Z,688
2019-05-04T18:11:10.213Z,668
2019-05-04T18:12:24.211Z,640
2019-05-04T18:13:34.675Z,616
2019-05-04T18:14:46.840Z,588
2019-05-04T18:15:57.017Z,564
2019-05-04T18:17:07.202Z,540
2019-05-04T18:18:17.381Z,516
2019-05-04T18:19:29.475Z,488
2019-05-04T18:20:39.832Z,468
2019-05-04T18:21:50.026Z,448
2019-05-04T18:23:05.083Z,428
2019-05-04T18:24:17.256Z,408
2019-05-04T18:25:29.545Z,380
2019-05-04T18:26:40.154Z,356
2019-05-04T18:27:54.395Z,328
2019-05-04T18:29:04.993Z,300
2019-05-04T18:30:17.036Z,268
2019-05-04T18:31:29.539Z,244
2019-05-04T18:32:41.811Z,224
2019-05-04T18:33:54.244Z,208
2019-05-04T18:35:05.185Z,180
2019-05-04T18:36:16.730Z,164
2019-05-04T18:37:27.752Z,156
2019-05-04T18:38:39.993Z,148
2019-05-04T18:39:53.998Z,140
2019-05-04T18:41:05.094Z,128
2019-05-04T18:42:15.415Z,120
2019-05-04T18:43:27.277Z,108
2019-05-04T18:44:39.357Z,96
2019-05-04T18:45:51.421Z,84
2019-05-04T18:47:04.961Z,76
2019-05-04T18:48:17.086Z,72
2019-05-04T18:49:27.433Z,64
2019-05-04T18:50:39.722Z,52
2019-05-04T18:51:51.702Z,48
2019-05-04T18:53:01.909Z,40
2019-05-04T18:54:14.295Z,32
2019-05-04T18:55:25.174Z,28
2019-05-04T18:56:37.039Z,28
2019-05-04T18:57:49.537Z,24
2019-05-04T18:58:59.782Z,16
2019-05-04T19:00:11.528Z,16
2019-05-04T19:01:22.414Z,16
2019-05-04T19:02:34.246Z,12
2019-05-04T19:03:44.822Z,12
2019-05-04T19:04:56.740Z,8
2019-05-04T19:06:07.349Z,8
2019-05-04T19:07:17.773Z,4
2019-05-04T19:08:29.489Z,8
2019-05-04T19:09:44.576Z,4
2019-05-04T19:10:56.778Z,4
2019-05-04T19:12:07.512Z,0
2019-05-04T19:13:19.118Z,4
2019-05-04T19:14:31.267Z,4
2019-05-04T19:15:45.317Z,0
2019-05-04T19:17:11.208Z,4
2019-05-04T19:18:24.377Z,4
2019-05-04T19:19:34.803Z,4
2019-05-04T19:20:46.554Z,0
2019-05-04T19:21:58.766Z,0
2019-05-04T19:23:09.598Z,0
2019-05-04T19:24:21.678Z,0
2019-05-04T19:25:32.861Z,0
2019-05-04T19:26:45.181Z,0
2019-05-04T19:27:55.459Z,0
2019-05-04T19:29:08.885Z,0
2019-05-04T19:30:20.509Z,0
2019-05-04T19:31:34.343Z,0
2019-05-04T19:32:48.795Z,0
2019-05-04T19:33:59.293Z,0
2019-05-04T19:35:10.329Z,0
2019-05-04T19:36:24.182Z,0
2019-05-04T19:37:34.901Z,0
2019-05-04T19:38:45.164Z,0
2019-05-04T19:39:57.436Z,0
2019-05-04T19:41:09.641Z,0
2019-05-04T19:42:19.678Z,0
2019-05-04T19:43:33.729Z,0
2019-05-04T19:44:43.925Z,0
2019-05-04T19:45:56.237Z,0
2019-05-04T19:47:22.461Z,0
2019-05-04T19:48:34.326Z,0
2019-05-04T19:49:45.211Z,0
2019-05-04T19:50:58.513Z,0
2019-05-04T19:52:09.926Z,0
2019-05-04T19:53:20.170Z,0
2019-05-04T19:54:34.963Z,0
2019-05-04T19:55:45.407Z,0
2019-05-04T19:56:57.358Z,0
2019-05-04T19:58:07.577Z,0
2019-05-04T19:59:19.830Z,0
2019-05-04T20:00:31.776Z,0
2019-05-04T20:01:45.151Z,0
2019-05-04T20:02:56.699Z,0
2019-05-04T20:04:07.933Z,0
2019-05-04T20:05:19.417Z,0
2019-05-04T20:06:31.567Z,0
2019-05-04T20:07:44.536Z,0
2019-05-04T20:08:55.007Z,0
2019-05-04T20:10:06.992Z,0
2019-05-04T20:11:17.786Z,0
2019-05-04T20:12:31.227Z,0
2019-05-04T20:13:44.792Z,0
2019-05-04T20:15:32.652Z,0
2019-05-04T20:16:44.687Z,0
2019-05-04T20:17:55.415Z,0
2019-05-04T20:19:07.801Z,0
2019-05-04T20:20:19.898Z,0
2019-05-04T20:21:33.691Z,0
2019-05-04T20:22:44.044Z,0
2019-05-04T20:23:54.640Z,0
2019-05-04T20:25:07.970Z,0
2019-05-04T20:26:19.267Z,0
2019-05-04T20:27:30.469Z,0
2019-05-04T20:28:42.317Z,0
2019-05-04T20:29:54.436Z,0
2019-05-04T20:31:07.049Z,0
2019-05-04T20:32:20.352Z,0
2019-05-04T20:33:34.513Z,0
2019-05-04T20:34:48.036Z,0
2019-05-04T20:36:00.256Z,0
2019-05-04T20:37:12.299Z,0
2019-05-04T20:38:24.930Z,0
2019-05-04T20:39:37.305Z,0
2019-05-04T20:40:50.523Z,0
2019-05-04T20:42:04.847Z,0
2019-05-04T20:43:18.153Z,0
2019-05-04T20:44:30.045Z,0
2019-05-04T20:45:42.440Z,0
2019-05-04T20:46:55.171Z,0
2019-05-04T20:48:07.581Z,0
2019-05-04T20:49:19.366Z,0
2019-05-04T20:50:31.914Z,0
2019-05-04T20:51:47.261Z,0
2019-05-04T20:52:59.115Z,0
2019-05-04T20:54:09.837Z,0
2019-05-04T20:55:19.786Z,0
2019-05-04T20:56:32.155Z,0
2019-05-04T20:57:44.373Z,0
2019-05-04T20:58:54.830Z,0
2019-05-04T21:00:07.035Z,0
2019-05-04T21:01:17.956Z,0
2019-05-04T21:02:29.462Z,0
2019-05-04T21:03:39.689Z,0
2019-05-04T21:04:49.868Z,0
2019-05-04T21:06:07.038Z,0
2019-05-04T21:07:19.324Z,0
2019-05-04T21:08:29.524Z,0
2019-05-04T21:09:39.864Z,0
2019-05-04T21:10:51.963Z,0
2019-05-04T21:12:04.812Z,0
2019-05-04T21:13:16.830Z,0
2019-05-04T21:14:27.491Z,0
2019-05-04T21:15:37.689Z,0
2019-05-04T21:16:50.085Z,0
2019-05-04T21:18:17.202Z,0
2019-05-04T21:19:29.388Z,0
2019-05-04T21:20:41.667Z,0
2019-05-04T21:21:52.356Z,0
2019-05-04T21:23:02.539Z,0
2019-05-04T21:24:12.370Z,0
2019-05-04T21:25:24.680Z,0
2019-05-04T21:26:36.916Z,0
2019-05-04T21:27:49.114Z,0
2019-05-04T21:29:01.459Z,0
2019-05-04T21:30:14.371Z,0
2019-05-04T21:31:25.351Z,0
2019-05-04T21:32:37.443Z,0
2019-05-04T21:33:49.501Z,0
2019-05-04T21:35:01.830Z,0
2019-05-04T21:36:14.909Z,0
2019-05-04T21:37:27.179Z,0
2019-05-04T21:38:39.187Z,0
2019-05-04T21:39:51.260Z,0
2019-05-04T21:41:03.490Z,0
2019-05-04T21:42:14.312Z,0
2019-05-04T21:43:24.694Z,0
2019-05-04T21:44:36.928Z,0
2019-05-04T21:45:46.831Z,0
2019-05-04T21:46:57.330Z,0
2019-05-04T21:48:24.686Z,0
2019-05-04T21:49:36.927Z,0
2019-05-04T21:50:49.034Z,0
2019-05-04T21:52:00.264Z,0
2019-05-04T21:53:14.664Z,0
2019-05-04T21:54:25.537Z,0
2019-05-04T21:55:35.841Z,0
2019-05-04T21:56:45.980Z,0
2019-05-04T21:57:56.131Z,0
2019-05-04T21:59:07.915Z,0
2019-05-04T22:00:19.376Z,0
2019-05-04T22:01:31.540Z,0
2019-05-04T22:02:44.981Z,0
2019-05-04T22:03:55.409Z,0
2019-05-04T22:05:06.966Z,0
2019-05-04T22:06:21.852Z,0
2019-05-04T22:07:32.775Z,0
2019-05-04T22:08:43.160Z,0
2019-05-04T22:09:53.275Z,0
2019-05-04T22:11:04.243Z,0
2019-05-04T22:12:15.123Z,0
2019-05-04T22:13:26.743Z,0
2019-05-04T22:14:37.803Z,0
2019-05-04T22:15:50.950Z,0
2019-05-04T22:17:02.237Z,0
2019-05-04T22:18:14.906Z,0
2019-05-04T22:19:37.976Z,0
2019-05-04T22:20:48.335Z,0
2019-05-04T22:21:59.928Z,0
2019-05-04T22:23:12.124Z,0
2019-05-04T22:24:25.292Z,0
2019-05-04T22:25:37.986Z,0
2019-05-04T22:26:50.356Z,0
2019-05-04T22:28:04.468Z,0
2019-05-04T22:29:14.927Z,0
2019-05-04T22:30:27.340Z,0
2019-05-04T22:31:39.771Z,0
2019-05-04T22:32:54.405Z,0
2019-05-04T22:34:07.316Z,0
2019-05-04T22:35:19.285Z,0
2019-05-04T22:36:31.423Z,0
2019-05-04T22:37:41.803Z,0
2019-05-04T22:38:54.525Z,0
2019-05-04T22:40:07.247Z,0
2019-05-04T22:41:19.406Z,0
2019-05-04T22:42:30.158Z,0
2019-05-04T22:43:42.235Z,0
2019-05-04T22:44:52.349Z,0
2019-05-04T22:46:02.204Z,0
2019-05-04T22:47:13.062Z,0
2019-05-04T22:48:24.274Z,0
2019-05-04T22:49:35.131Z,0
2019-05-04T22:50:47.250Z,0
2019-05-04T22:52:18.322Z,0
2019-05-04T22:53:29.191Z,0
2019-05-04T22:54:41.391Z,0
2019-05-04T22:55:52.681Z,0
2019-05-04T22:57:04.539Z,0
2019-05-04T22:58:14.866Z,0
2019-05-04T22:59:24.985Z,0
2019-05-04T23:00:37.093Z,0
2019-05-04T23:01:49.068Z,0
2019-05-04T23:03:01.113Z,0
2019-05-04T23:04:14.689Z,0
2019-05-04T23:05:27.397Z,0
2019-05-04T23:06:39.712Z,0
2019-05-04T23:07:50.064Z,0
2019-05-04T23:09:04.492Z,0
2019-05-04T23:10:17.049Z,0
2019-05-04T23:11:27.938Z,0
2019-05-04T23:12:38.048Z,0
2019-05-04T23:13:48.165Z,0
2019-05-04T23:15:00.939Z,0
2019-05-04T23:16:14.971Z,0
2019-05-04T23:17:27.133Z,0
2019-05-04T23:18:39.110Z,0
2019-05-04T23:19:50.017Z,0
2019-05-04T23:21:03.990Z,0
2019-05-04T23:22:16.647Z,0
2019-05-04T23:23:27.492Z,0
2019-05-04T23:24:39.492Z,0
2019-05-04T23:25:49.776Z,0
2019-05-04T23:26:59.881Z,0
2019-05-04T23:28:09.483Z,0
2019-05-04T23:29:20.233Z,0
2019-05-04T23:30:32.420Z,0
2019-05-04T23:31:45.250Z,0
2019-05-04T23:32:57.191Z,0
2019-05-04T23:34:09.405Z,0
2019-05-04T23:35:21.639Z,0
2019-05-04T23:36:34.758Z,0
2019-05-04T23:37:47.205Z,0
2019-05-04T23:38:59.411Z,0
2019-05-04T23:40:10.547Z,0
2019-05-04T23:41:24.865Z,0
2019-05-04T23:42:38.822Z,0
2019-05-04T23:43:50.517Z,0
2019-05-04T23:45:04.662Z,0
2019-05-04T23:46:17.212Z,0
2019-05-04T23:47:29.246Z,0
2019-05-04T23:48:39.669Z,0
2019-05-04T23:49:51.739Z,0
2019-05-04T23:51:01.872Z,0
2019-05-04T23:52:12.107Z,0
2019-05-04T23:53:22.252Z,0
2019-05-04T23:54:34.981Z,0
2019-05-04T23:55:47.867Z,0
2019-05-04T23:56:59.268Z,0
2019-05-04T23:58:09.370Z,0
2019-05-04T23:59:20.560Z,0
